sensor_id;sensor_type;location;lat;lon;timestamp;pressure;altitude;pressure_sealevel;temperature;humidity
71857;BME280;63344;46.980;28.882;2023-12-29T00:01:40;100985.53;;;0.18;94.92
71857;BME280;63344;46.980;28.882;2023-12-29T00:04:07;100993.38;;;0.16;94.63
71857;BME280;63344;46.980;28.882;2023-12-29T00:06:39;101006.44;;;0.18;94.87
71857;BME280;63344;46.980;28.882;2023-12-29T00:09:23;101002.94;;;0.14;94.45
71857;BME280;63344;46.980;28.882;2023-12-29T00:11:52;100996.75;;;0.08;94.26
71857;BME280;63344;46.980;28.882;2023-12-29T00:14:21;100999.25;;;-0.05;94.05
71857;BME280;63344;46.980;28.882;2023-12-29T00:16:49;100949.25;;;-0.40;93.66
71857;BME280;63344;46.980;28.882;2023-12-29T00:19:17;101001.78;;;-0.14;94.16
71857;BME280;63344;46.980;28.882;2023-12-29T00:21:48;100985.03;;;-0.31;93.85
71857;BME280;63344;46.980;28.882;2023-12-29T00:24:15;100974.69;;;-0.25;94.55
71857;BME280;63344;46.980;28.882;2023-12-29T00:26:43;100979.22;;;-0.07;94.88
71857;BME280;63344;46.980;28.882;2023-12-29T00:29:10;100973.16;;;-0.05;94.53
71857;BME280;63344;46.980;28.882;2023-12-29T00:31:38;100974.09;;;0.02;94.89
71857;BME280;63344;46.980;28.882;2023-12-29T00:34:05;100981.88;;;-0.03;94.20
71857;BME280;63344;46.980;28.882;2023-12-29T00:36:34;100998.22;;;-0.19;93.67
71857;BME280;63344;46.980;28.882;2023-12-29T00:39:04;100986.69;;;-0.39;93.55
71857;BME280;63344;46.980;28.882;2023-12-29T00:41:32;100964.59;;;-0.66;93.43
71857;BME280;63344;46.980;28.882;2023-12-29T00:44:01;100971.44;;;-0.76;93.33
71857;BME280;63344;46.980;28.882;2023-12-29T00:46:31;100961.69;;;-0.91;93.28
71857;BME280;63344;46.980;28.882;2023-12-29T00:48:59;100976.38;;;-0.97;92.89
71857;BME280;63344;46.980;28.882;2023-12-29T00:51:28;100978.19;;;-0.93;93.22
71857;BME280;63344;46.980;28.882;2023-12-29T00:53:55;100980.00;;;-0.88;93.24
71857;BME280;63344;46.980;28.882;2023-12-29T00:56:23;100957.34;;;-0.90;93.31
71857;BME280;63344;46.980;28.882;2023-12-29T00:58:50;100967.00;;;-0.85;93.28
71857;BME280;63344;46.980;28.882;2023-12-29T01:01:17;100939.00;;;-0.98;93.61
71857;BME280;63344;46.980;28.882;2023-12-29T01:03:45;100947.75;;;-0.93;93.76
71857;BME280;63344;46.980;28.882;2023-12-29T01:06:13;100959.16;;;-0.88;93.42
71857;BME280;63344;46.980;28.882;2023-12-29T01:08:41;100934.69;;;-0.94;94.18
71857;BME280;63344;46.980;28.882;2023-12-29T01:11:12;100919.78;;;-1.06;93.79
71857;BME280;63344;46.980;28.882;2023-12-29T01:13:39;100952.03;;;-0.99;93.79
71857;BME280;63344;46.980;28.882;2023-12-29T01:16:11;100945.75;;;-1.12;93.22
71857;BME280;63344;46.980;28.882;2023-12-29T01:18:38;100955.16;;;-1.22;93.01
71857;BME280;63344;46.980;28.882;2023-12-29T01:21:06;100938.34;;;-1.44;92.66
71857;BME280;63344;46.980;28.882;2023-12-29T01:23:33;100933.84;;;-1.54;92.56
71857;BME280;63344;46.980;28.882;2023-12-29T01:26:01;100945.97;;;-1.56;92.87
71857;BME280;63344;46.980;28.882;2023-12-29T01:28:28;100952.81;;;-1.63;93.15
71857;BME280;63344;46.980;28.882;2023-12-29T01:30:56;100929.16;;;-1.77;93.46
71857;BME280;63344;46.980;28.882;2023-12-29T01:33:25;100940.34;;;-1.83;94.01
71857;BME280;63344;46.980;28.882;2023-12-29T01:35:55;100951.78;;;-1.73;94.66
71857;BME280;63344;46.980;28.882;2023-12-29T01:38:23;100954.41;;;-1.70;94.71
71857;BME280;63344;46.980;28.882;2023-12-29T01:40:51;100955.38;;;-1.65;94.84
71857;BME280;63344;46.980;28.882;2023-12-29T01:43:18;100941.47;;;-1.67;94.61
71857;BME280;63344;46.980;28.882;2023-12-29T01:45:46;100913.53;;;-1.77;94.87
71857;BME280;63344;46.980;28.882;2023-12-29T01:48:24;100936.34;;;-1.61;94.95
71857;BME280;63344;46.980;28.882;2023-12-29T01:50:53;100896.88;;;-1.87;94.70
71857;BME280;63344;46.980;28.882;2023-12-29T01:53:22;100952.78;;;-1.65;94.64
71857;BME280;63344;46.980;28.882;2023-12-29T01:56:07;100942.25;;;-1.72;94.54
71857;BME280;63344;46.980;28.882;2023-12-29T01:58:35;100902.84;;;-1.94;94.54
71857;BME280;63344;46.980;28.882;2023-12-29T02:01:03;100919.38;;;-1.90;95.21
71857;BME280;63344;46.980;28.882;2023-12-29T02:03:32;100910.53;;;-2.00;95.09
71857;BME280;63344;46.980;28.882;2023-12-29T02:06:00;100940.41;;;-1.78;95.35
71857;BME280;63344;46.980;28.882;2023-12-29T02:08:53;100936.25;;;-1.67;95.19
71857;BME280;63344;46.980;28.882;2023-12-29T02:11:22;100929.31;;;-1.66;95.28
71857;BME280;63344;46.980;28.882;2023-12-29T02:13:49;100927.81;;;-1.53;94.90
71857;BME280;63344;46.980;28.882;2023-12-29T02:16:25;100919.94;;;-1.56;95.16
71857;BME280;63344;46.980;28.882;2023-12-29T02:18:57;100925.19;;;-1.52;95.15
71857;BME280;63344;46.980;28.882;2023-12-29T02:21:29;100905.00;;;-1.67;94.86
71857;BME280;63344;46.980;28.882;2023-12-29T02:23:57;100927.81;;;-1.53;95.31
71857;BME280;63344;46.980;28.882;2023-12-29T02:26:29;100909.50;;;-1.56;94.99
71857;BME280;63344;46.980;28.882;2023-12-29T02:29:02;100892.78;;;-1.72;94.89
71857;BME280;63344;46.980;28.882;2023-12-29T02:31:35;100912.84;;;-1.65;94.80
71857;BME280;63344;46.980;28.882;2023-12-29T02:34:06;100926.78;;;-1.63;95.79
71857;BME280;63344;46.980;28.882;2023-12-29T02:36:39;100904.94;;;-1.70;95.38
71857;BME280;63344;46.980;28.882;2023-12-29T02:39:10;100933.00;;;-1.52;95.37
71857;BME280;63344;46.980;28.882;2023-12-29T02:41:39;100916.31;;;-1.65;95.68
71857;BME280;63344;46.980;28.882;2023-12-29T02:44:06;100928.56;;;-1.59;96.03
71857;BME280;63344;46.980;28.882;2023-12-29T02:46:35;100926.78;;;-1.63;95.91
71857;BME280;63344;46.980;28.882;2023-12-29T02:49:02;100916.31;;;-1.68;96.27
71857;BME280;63344;46.980;28.882;2023-12-29T02:51:29;100890.22;;;-1.69;96.46
71857;BME280;63344;46.980;28.882;2023-12-29T02:53:56;100924.31;;;-1.52;96.29
71857;BME280;63344;46.980;28.882;2023-12-29T02:56:24;100927.78;;;-1.52;96.62
71857;BME280;63344;46.980;28.882;2023-12-29T02:58:51;100903.41;;;-1.58;96.74
71857;BME280;63344;46.980;28.882;2023-12-29T03:01:21;100931.41;;;-1.45;96.74
71857;BME280;63344;46.980;28.882;2023-12-29T03:03:48;100937.63;;;-1.35;96.79
71857;BME280;63344;46.980;28.882;2023-12-29T03:06:16;100928.06;;;-1.35;97.27
71857;BME280;63344;46.980;28.882;2023-12-29T03:08:44;100949.84;;;-1.31;97.54
71857;BME280;63344;46.980;28.882;2023-12-29T03:11:11;100928.00;;;-1.38;97.48
71857;BME280;63344;46.980;28.882;2023-12-29T03:13:39;100929.00;;;-1.31;97.57
71857;BME280;63344;46.980;28.882;2023-12-29T03:16:07;100929.06;;;-1.27;97.32
71857;BME280;63344;46.980;28.882;2023-12-29T03:18:36;100915.13;;;-1.29;97.42
71857;BME280;63344;46.980;28.882;2023-12-29T03:21:07;100923.91;;;-1.24;97.73
71857;BME280;63344;46.980;28.882;2023-12-29T03:23:35;100897.78;;;-1.27;97.56
71857;BME280;63344;46.980;28.882;2023-12-29T03:26:05;100908.44;;;-1.08;97.59
71857;BME280;63344;46.980;28.882;2023-12-29T03:28:33;100884.75;;;-1.27;97.85
71857;BME280;63344;46.980;28.882;2023-12-29T03:31:01;100915.41;;;-1.09;97.86
71857;BME280;63344;46.980;28.882;2023-12-29T03:33:28;100893.56;;;-1.18;97.58
71857;BME280;63344;46.980;28.882;2023-12-29T03:35:56;100913.72;;;-1.05;98.00
71857;BME280;63344;46.980;28.882;2023-12-29T03:38:23;100910.13;;;-1.13;98.00
71857;BME280;63344;46.980;28.882;2023-12-29T03:40:53;100910.13;;;-1.13;97.87
71857;BME280;63344;46.980;28.882;2023-12-29T03:43:21;100907.59;;;-1.09;97.74
71857;BME280;63344;46.980;28.882;2023-12-29T03:45:50;100870.66;;;-1.43;97.40
71857;BME280;63344;46.980;28.882;2023-12-29T03:48:17;100910.66;;;-1.36;97.20
71857;BME280;63344;46.980;28.882;2023-12-29T03:50:45;100913.34;;;-1.33;97.17
71857;BME280;63344;46.980;28.882;2023-12-29T03:53:12;100905.47;;;-1.36;97.21
71857;BME280;63344;46.980;28.882;2023-12-29T03:55:42;100921.91;;;-1.40;97.67
71857;BME280;63344;46.980;28.882;2023-12-29T03:58:10;100916.66;;;-1.43;97.85
71857;BME280;63344;46.980;28.882;2023-12-29T04:00:38;100907.88;;;-1.48;98.56
71857;BME280;63344;46.980;28.882;2023-12-29T04:03:09;100927.94;;;-1.43;98.66
71857;BME280;63344;46.980;28.882;2023-12-29T04:05:37;100926.28;;;-1.39;98.79
71857;BME280;63344;46.980;28.882;2023-12-29T04:08:05;100917.66;;;-1.35;99.19
71857;BME280;63344;46.980;28.882;2023-12-29T04:10:35;100895.09;;;-1.33;99.25
71857;BME280;63344;46.980;28.882;2023-12-29T04:13:03;100908.38;;;-1.14;99.09
71857;BME280;63344;46.980;28.882;2023-12-29T04:15:33;100927.69;;;-1.02;98.71
71857;BME280;63344;46.980;28.882;2023-12-29T04:18:04;100900.69;;;-1.05;98.93
71857;BME280;63344;46.980;28.882;2023-12-29T04:20:32;100884.91;;;-1.14;99.23
71857;BME280;63344;46.980;28.882;2023-12-29T04:22:59;100916.53;;;-0.90;98.96
71857;BME280;63344;46.980;28.882;2023-12-29T04:25:31;100876.22;;;-1.16;98.67
71857;BME280;63344;46.980;28.882;2023-12-29T04:27:58;100900.63;;;-1.08;98.41
71857;BME280;63344;46.980;28.882;2023-12-29T04:30:26;100916.34;;;-1.04;98.34
71857;BME280;63344;46.980;28.882;2023-12-29T04:32:54;100907.53;;;-1.13;98.40
71857;BME280;63344;46.980;28.882;2023-12-29T04:35:22;100910.97;;;-1.14;98.22
71857;BME280;63344;46.980;28.882;2023-12-29T04:37:49;100911.75;;;-1.20;98.32
71857;BME280;63344;46.980;28.882;2023-12-29T04:40:18;100904.78;;;-1.23;98.28
71857;BME280;63344;46.980;28.882;2023-12-29T04:42:45;100931.84;;;-1.13;98.35
71857;BME280;63344;46.980;28.882;2023-12-29T04:45:13;100929.19;;;-1.17;97.95
71857;BME280;63344;46.980;28.882;2023-12-29T04:47:40;100927.41;;;-1.22;98.10
71857;BME280;63344;46.980;28.882;2023-12-29T04:50:08;100942.22;;;-1.16;98.19
71857;BME280;63344;46.980;28.882;2023-12-29T04:52:36;100929.16;;;-1.19;97.88
71857;BME280;63344;46.980;28.882;2023-12-29T04:55:04;100939.56;;;-1.21;97.79
71857;BME280;63344;46.980;28.882;2023-12-29T04:57:31;100918.50;;;-1.34;97.67
71857;BME280;63344;46.980;28.882;2023-12-29T04:59:58;100926.50;;;-1.24;98.05
71857;BME280;63344;46.980;28.882;2023-12-29T05:02:33;100933.41;;;-1.24;98.02
71857;BME280;63344;46.980;28.882;2023-12-29T05:05:01;100951.75;;;-1.19;97.82
71857;BME280;63344;46.980;28.882;2023-12-29T05:07:33;100925.50;;;-1.33;97.71
71857;BME280;63344;46.980;28.882;2023-12-29T05:10:16;100938.50;;;-1.32;97.78
71857;BME280;63344;46.980;28.882;2023-12-29T05:12:45;100950.75;;;-1.29;97.59
71857;BME280;63344;46.980;28.882;2023-12-29T05:15:13;100920.22;;;-1.36;97.58
71857;BME280;63344;46.980;28.882;2023-12-29T05:17:42;100931.59;;;-1.31;97.90
71857;BME280;63344;46.980;28.882;2023-12-29T05:20:10;100946.53;;;-1.18;97.54
71857;BME280;63344;46.980;28.882;2023-12-29T05:22:37;100938.72;;;-1.19;97.21
71857;BME280;63344;46.980;28.882;2023-12-29T05:25:05;100957.06;;;-1.10;97.68
71857;BME280;63344;46.980;28.882;2023-12-29T05:27:35;100930.84;;;-1.23;97.46
71857;BME280;63344;46.980;28.882;2023-12-29T05:30:05;100916.81;;;-1.32;97.54
71857;BME280;63344;46.980;28.882;2023-12-29T05:32:33;100923.03;;;-1.23;97.93
71857;BME280;63344;46.980;28.882;2023-12-29T05:35:01;100920.59;;;-1.12;98.06
71857;BME280;63344;46.980;28.882;2023-12-29T05:37:29;100928.50;;;-1.04;97.66
71857;BME280;63344;46.980;28.882;2023-12-29T05:39:56;100947.75;;;-0.93;97.87
71857;BME280;63344;46.980;28.882;2023-12-29T05:42:27;100958.25;;;-0.88;97.97
71857;BME280;63344;46.980;28.882;2023-12-29T05:44:54;100943.31;;;-1.02;97.84
71857;BME280;63344;46.980;28.882;2023-12-29T05:47:22;100928.25;;;-1.23;97.69
71857;BME280;63344;46.980;28.882;2023-12-29T05:49:49;100974.47;;;-1.09;97.12
71857;BME280;63344;46.980;28.882;2023-12-29T05:52:18;100987.41;;;-1.15;96.93
71857;BME280;63344;46.980;28.882;2023-12-29T05:54:49;100990.84;;;-1.19;97.05
71857;BME280;63344;46.980;28.882;2023-12-29T05:57:16;100981.19;;;-1.25;97.72
71857;BME280;63344;46.980;28.882;2023-12-29T05:59:44;100960.97;;;-1.40;97.59
71857;BME280;63344;46.980;28.882;2023-12-29T06:02:11;100989.00;;;-1.25;97.73
71857;BME280;63344;46.980;28.882;2023-12-29T06:04:38;100970.69;;;-1.31;97.68
71857;BME280;63344;46.980;28.882;2023-12-29T06:07:07;100956.53;;;-1.47;98.06
71857;BME280;63344;46.980;28.882;2023-12-29T06:09:35;100999.41;;;-1.27;98.04
71857;BME280;63344;46.980;28.882;2023-12-29T06:12:03;100989.75;;;-1.32;98.06
71857;BME280;63344;46.980;28.882;2023-12-29T06:14:30;100970.56;;;-1.39;98.37
71857;BME280;63344;46.980;28.882;2023-12-29T06:17:01;100959.06;;;-1.52;98.25
71857;BME280;63344;46.980;28.882;2023-12-29T06:19:28;101003.84;;;-1.21;98.16
71857;BME280;63344;46.980;28.882;2023-12-29T06:21:56;100993.31;;;-1.27;98.60
71857;BME280;63344;46.980;28.882;2023-12-29T06:24:23;100995.84;;;-1.32;98.60
71857;BME280;63344;46.980;28.882;2023-12-29T06:26:53;100988.81;;;-1.36;98.76
71857;BME280;63344;46.980;28.882;2023-12-29T06:29:20;101013.31;;;-1.25;98.83
71857;BME280;63344;46.980;28.882;2023-12-29T06:31:47;100974.91;;;-1.38;98.90
71857;BME280;63344;46.980;28.882;2023-12-29T06:34:14;101006.50;;;-1.16;99.17
71857;BME280;63344;46.980;28.882;2023-12-29T06:36:42;100982.03;;;-1.28;99.25
71857;BME280;63344;46.980;28.882;2023-12-29T06:39:09;100985.53;;;-1.26;99.04
71857;BME280;63344;46.980;28.882;2023-12-29T06:41:37;100992.63;;;-1.15;99.46
71857;BME280;63344;46.980;28.882;2023-12-29T06:44:06;100968.03;;;-1.33;99.22
71857;BME280;63344;46.980;28.882;2023-12-29T06:46:39;100974.09;;;-1.35;98.70
71857;BME280;63344;46.980;28.882;2023-12-29T06:49:08;100999.56;;;-1.16;98.80
71857;BME280;63344;46.980;28.882;2023-12-29T06:51:36;100999.75;;;-1.04;99.27
71857;BME280;63344;46.980;28.882;2023-12-29T06:54:06;100991.84;;;-1.08;99.00
71857;BME280;63344;46.980;28.882;2023-12-29T06:56:34;100987.50;;;-1.09;98.88
71857;BME280;63344;46.980;28.882;2023-12-29T06:59:01;101012.88;;;-0.97;98.78
71857;BME280;63344;46.980;28.882;2023-12-29T07:01:29;100975.38;;;-1.07;98.50
71857;BME280;63344;46.980;28.882;2023-12-29T07:03:57;100988.50;;;-1.01;98.36
71857;BME280;63344;46.980;28.882;2023-12-29T07:06:25;101012.19;;;-0.84;98.06
71857;BME280;63344;46.980;28.882;2023-12-29T07:08:52;100967.63;;;-1.01;98.60
71857;BME280;63344;46.980;28.882;2023-12-29T07:11:21;100998.34;;;-0.78;98.07
71857;BME280;63344;46.980;28.882;2023-12-29T07:13:48;100980.16;;;-0.75;97.95
71857;BME280;63344;46.980;28.882;2023-12-29T07:16:15;100994.25;;;-0.61;97.92
71857;BME280;63344;46.980;28.882;2023-12-29T07:18:43;100997.78;;;-0.57;98.02
71857;BME280;63344;46.980;28.882;2023-12-29T07:21:13;101024.03;;;-0.45;97.51
71857;BME280;63344;46.980;28.882;2023-12-29T07:23:44;101002.16;;;-0.55;97.47
71857;BME280;63344;46.980;28.882;2023-12-29T07:26:22;101018.00;;;-0.39;97.79
71857;BME280;63344;46.980;28.882;2023-12-29T07:28:50;101005.78;;;-0.44;97.25
71857;BME280;63344;46.980;28.882;2023-12-29T07:31:21;100997.91;;;-0.47;96.86
71857;BME280;63344;46.980;28.882;2023-12-29T07:33:49;101039.16;;;-0.18;97.19
71857;BME280;63344;46.980;28.882;2023-12-29T07:36:17;101010.28;;;-0.32;96.45
71857;BME280;63344;46.980;28.882;2023-12-29T07:38:44;101043.41;;;-0.25;95.99
71857;BME280;63344;46.980;28.882;2023-12-29T07:41:12;101025.84;;;-0.36;95.92
71857;BME280;63344;46.980;28.882;2023-12-29T07:43:41;101016.28;;;-0.37;95.55
71857;BME280;63344;46.980;28.882;2023-12-29T07:46:09;101008.56;;;-0.28;95.67
71857;BME280;63344;46.980;28.882;2023-12-29T07:48:36;101013.03;;;-0.18;95.81
71857;BME280;63344;46.980;28.882;2023-12-29T07:51:06;101029.81;;;0.03;95.59
71857;BME280;63344;46.980;28.882;2023-12-29T07:53:33;101014.03;;;-0.05;95.51
71857;BME280;63344;46.980;28.882;2023-12-29T07:56:01;100998.22;;;-0.19;94.88
71857;BME280;63344;46.980;28.882;2023-12-29T07:58:29;101018.31;;;-0.10;94.45
71857;BME280;63344;46.980;28.882;2023-12-29T08:00:57;101041.06;;;-0.02;94.54
71857;BME280;63344;46.980;28.882;2023-12-29T08:03:28;101010.50;;;-0.10;94.46
71857;BME280;63344;46.980;28.882;2023-12-29T08:06:24;101021.75;;;-0.17;94.32
71857;BME280;63344;46.980;28.882;2023-12-29T08:08:53;101013.00;;;-0.21;94.30
71857;BME280;63344;46.980;28.882;2023-12-29T08:11:21;101039.25;;;-0.09;94.38
71857;BME280;63344;46.980;28.882;2023-12-29T08:13:48;101033.09;;;-0.12;94.28
71857;BME280;63344;46.980;28.882;2023-12-29T08:16:16;101045.41;;;-0.04;94.09
71857;BME280;63344;46.980;28.882;2023-12-29T08:18:49;101047.22;;;0.05;94.15
71857;BME280;63344;46.980;28.882;2023-12-29T08:21:21;100994.78;;;-0.18;94.06
71857;BME280;63344;46.980;28.882;2023-12-29T08:23:51;100970.31;;;-0.28;94.11
71857;BME280;63344;46.980;28.882;2023-12-29T08:26:18;101015.66;;;-0.18;93.51
71857;BME280;63344;46.980;28.882;2023-12-29T08:28:46;101058.44;;;-0.02;93.60
71857;BME280;63344;46.980;28.882;2023-12-29T08:31:14;101049.75;;;-0.03;94.01
71857;BME280;63344;46.980;28.882;2023-12-29T08:33:42;101061.97;;;-0.02;93.76
71857;BME280;63344;46.980;28.882;2023-12-29T08:36:11;101043.69;;;-0.02;93.64
71857;BME280;63344;46.980;28.882;2023-12-29T08:38:39;101038.53;;;0.08;93.54
71857;BME280;63344;46.980;28.882;2023-12-29T08:41:07;100994.84;;;-0.12;93.23
71857;BME280;63344;46.980;28.882;2023-12-29T08:43:34;100970.31;;;-0.25;93.03
71857;BME280;63344;46.980;28.882;2023-12-29T08:46:03;101000.13;;;-0.06;93.05
71857;BME280;63344;46.980;28.882;2023-12-29T08:48:31;101005.38;;;-0.01;93.08
71857;BME280;63344;46.980;28.882;2023-12-29T08:50:58;100996.63;;;-0.06;92.72
71857;BME280;63344;46.980;28.882;2023-12-29T08:53:26;101044.91;;;0.33;93.15
71857;BME280;63344;46.980;28.882;2023-12-29T08:55:53;101055.44;;;0.44;93.24
71857;BME280;63344;46.980;28.882;2023-12-29T08:58:20;101006.53;;;0.24;92.50
71857;BME280;63344;46.980;28.882;2023-12-29T09:00:47;100996.03;;;0.21;92.29
71857;BME280;63344;46.980;28.882;2023-12-29T09:03:15;100996.06;;;0.23;92.32
71857;BME280;63344;46.980;28.882;2023-12-29T09:05:43;101008.28;;;0.30;92.35
71857;BME280;63344;46.980;28.882;2023-12-29T09:08:11;101003.06;;;0.30;92.11
71857;BME280;63344;46.980;28.882;2023-12-29T09:10:39;101010.97;;;0.34;91.88
71857;BME280;63344;46.980;28.882;2023-12-29T09:13:07;101015.56;;;0.60;92.13
71857;BME280;63344;46.980;28.882;2023-12-29T09:15:37;100994.56;;;0.54;91.81
71857;BME280;63344;46.980;28.882;2023-12-29T09:18:15;100972.69;;;0.39;91.44
71857;BME280;63344;46.980;28.882;2023-12-29T09:20:51;100981.59;;;0.65;91.78
71857;BME280;63344;46.980;28.882;2023-12-29T09:23:19;100968.66;;;0.85;91.61
71857;BME280;63344;46.980;28.882;2023-12-29T09:25:47;101019.56;;;1.39;91.66
71857;BME280;63344;46.980;28.882;2023-12-29T09:28:16;100954.06;;;1.25;91.07
71857;BME280;63344;46.980;28.882;2023-12-29T09:30:43;101002.31;;;1.84;90.65
71857;BME280;63344;46.980;28.882;2023-12-29T09:33:11;101005.03;;;2.49;90.69
71857;BME280;63344;46.980;28.882;2023-12-29T09:35:40;100994.34;;;3.53;89.63
71857;BME280;63344;46.980;28.882;2023-12-29T09:38:12;100980.03;;;4.14;84.78
71857;BME280;63344;46.980;28.882;2023-12-29T09:40:40;100972.50;;;4.79;80.01
71857;BME280;63344;46.980;28.882;2023-12-29T09:43:12;100976.94;;;4.74;76.61
71857;BME280;63344;46.980;28.882;2023-12-29T09:45:40;100943.97;;;4.30;77.02
71857;BME280;63344;46.980;28.882;2023-12-29T09:48:11;100967.44;;;4.55;76.68
71857;BME280;63344;46.980;28.882;2023-12-29T09:51:10;100984.34;;;5.93;74.82
71857;BME280;63344;46.980;28.882;2023-12-29T09:53:40;100963.78;;;6.20;70.89
71857;BME280;63344;46.980;28.882;2023-12-29T09:56:09;100946.97;;;5.65;70.77
71857;BME280;63344;46.980;28.882;2023-12-29T09:58:40;100972.41;;;5.68;71.54
71857;BME280;63344;46.980;28.882;2023-12-29T10:01:07;100958.72;;;6.05;71.59
71857;BME280;63344;46.980;28.882;2023-12-29T10:03:36;100906.47;;;6.31;70.55
71857;BME280;63344;46.980;28.882;2023-12-29T10:06:06;100934.31;;;6.48;69.20
71857;BME280;63344;46.980;28.882;2023-12-29T10:08:37;100970.41;;;6.46;70.41
71857;BME280;63344;46.980;28.882;2023-12-29T10:11:07;100968.41;;;6.06;70.71
71857;BME280;63344;46.980;28.882;2023-12-29T10:13:39;100952.94;;;5.76;72.46
71857;BME280;63344;46.980;28.882;2023-12-29T10:16:31;100958.38;;;6.28;71.14
71857;BME280;63344;46.980;28.882;2023-12-29T10:20:01;100974.63;;;6.56;69.37
71857;BME280;63344;46.980;28.882;2023-12-29T10:22:21;100974.78;;;6.47;68.78
71857;BME280;63344;46.980;28.882;2023-12-29T10:24:53;100938.38;;;6.13;69.14
71857;BME280;63344;46.980;28.882;2023-12-29T10:27:20;100963.66;;;6.28;69.82
71857;BME280;63344;46.980;28.882;2023-12-29T10:29:48;100970.81;;;6.75;68.78
71857;BME280;63344;46.980;28.882;2023-12-29T10:32:15;100942.84;;;6.64;67.55
71857;BME280;63344;46.980;28.882;2023-12-29T10:34:43;100901.34;;;6.21;68.40
71857;BME280;63344;46.980;28.882;2023-12-29T10:37:11;100954.13;;;6.19;68.76
71857;BME280;63344;46.980;28.882;2023-12-29T10:39:55;100949.78;;;5.50;70.82
71857;BME280;63344;46.980;28.882;2023-12-29T10:42:27;100925.03;;;4.87;72.33
71857;BME280;63344;46.980;28.882;2023-12-29T10:45:08;100927.00;;;4.65;74.22
71857;BME280;63344;46.980;28.882;2023-12-29T10:47:43;100931.47;;;4.57;75.03
71857;BME280;63344;46.980;28.882;2023-12-29T10:50:15;100918.44;;;4.45;75.75
71857;BME280;63344;46.980;28.882;2023-12-29T10:52:45;100933.38;;;4.41;76.32
71857;BME280;63344;46.980;28.882;2023-12-29T10:55:16;100915.97;;;4.23;77.03
71857;BME280;63344;46.980;28.882;2023-12-29T10:57:49;100944.78;;;4.38;77.78
71857;BME280;63344;46.980;28.882;2023-12-29T11:00:31;100896.81;;;4.12;78.17
71857;BME280;63344;46.980;28.882;2023-12-29T11:03:07;100942.97;;;4.48;78.73
71857;BME280;63344;46.980;28.882;2023-12-29T11:06:06;100935.09;;;4.45;78.78
71857;BME280;63344;46.980;28.882;2023-12-29T11:09:00;100903.75;;;4.19;79.28
71857;BME280;63344;46.980;28.882;2023-12-29T11:11:43;100910.81;;;4.12;80.23
71857;BME280;63344;46.980;28.882;2023-12-29T11:14:13;100916.03;;;4.18;80.74
71857;BME280;63344;46.980;28.882;2023-12-29T11:16:41;100893.28;;;4.16;80.60
71857;BME280;63344;46.980;28.882;2023-12-29T11:19:11;100925.53;;;4.38;80.77
71857;BME280;63344;46.980;28.882;2023-12-29T11:21:45;100871.41;;;4.09;81.50
71857;BME280;63344;46.980;28.882;2023-12-29T11:24:13;100861.78;;;4.10;81.71
71857;BME280;63344;46.980;28.882;2023-12-29T11:26:49;100861.69;;;4.22;81.79
71857;BME280;63344;46.980;28.882;2023-12-29T11:29:17;100860.72;;;4.31;82.22
71857;BME280;63344;46.980;28.882;2023-12-29T11:31:48;100865.00;;;4.41;82.22
71857;BME280;63344;46.980;28.882;2023-12-29T11:34:32;100905.03;;;4.71;82.47
71857;BME280;63344;46.980;28.882;2023-12-29T11:42:47;100876.94;;;4.77;82.27
71857;BME280;63344;46.980;28.882;2023-12-29T11:45:31;100874.25;;;4.79;82.57
71857;BME280;63344;46.980;28.882;2023-12-29T11:48:04;100843.78;;;4.59;82.41
71857;BME280;63344;46.980;28.882;2023-12-29T11:50:34;100901.25;;;4.96;83.03
71857;BME280;63344;46.980;28.882;2023-12-29T11:53:02;100888.09;;;4.98;83.11
71857;BME280;63344;46.980;28.882;2023-12-29T11:55:39;100894.97;;;5.11;82.80
71857;BME280;63344;46.980;28.882;2023-12-29T11:58:26;100901.78;;;5.26;82.66
71857;BME280;63344;46.980;28.882;2023-12-29T12:00:57;100875.56;;;5.18;81.82
71857;BME280;63344;46.980;28.882;2023-12-29T12:03:30;100898.94;;;5.43;81.52
71857;BME280;63344;46.980;28.882;2023-12-29T12:06:00;100900.59;;;5.50;81.13
71857;BME280;63344;46.980;28.882;2023-12-29T12:08:35;100886.75;;;5.34;80.69
71857;BME280;63344;46.980;28.882;2023-12-29T12:14:46;100897.91;;;5.55;80.30
71857;BME280;63344;46.980;28.882;2023-12-29T12:17:35;100862.78;;;5.54;79.66
71857;BME280;63344;46.980;28.882;2023-12-29T12:20:08;100901.75;;;5.96;79.72
71857;BME280;63344;46.980;28.882;2023-12-29T12:22:36;100870.88;;;6.03;78.90
71857;BME280;63344;46.980;28.882;2023-12-29T12:25:06;100903.75;;;6.36;78.35
71857;BME280;63344;46.980;28.882;2023-12-29T12:27:37;100916.56;;;6.59;78.05
71857;BME280;63344;46.980;28.882;2023-12-29T12:30:06;100888.38;;;6.61;77.08
71857;BME280;63344;46.980;28.882;2023-12-29T12:32:38;100847.53;;;6.31;76.29
71857;BME280;63344;46.980;28.882;2023-12-29T12:35:35;100905.72;;;6.73;75.96
71857;BME280;63344;46.980;28.882;2023-12-29T12:40:39;100895.13;;;6.74;74.75
71857;BME280;63344;46.980;28.882;2023-12-29T12:43:36;100866.78;;;6.37;74.76
71857;BME280;63344;46.980;28.882;2023-12-29T12:46:07;100904.47;;;6.46;75.11
71857;BME280;63344;46.980;28.882;2023-12-29T12:48:42;100891.50;;;6.32;75.57
71857;BME280;63344;46.980;28.882;2023-12-29T12:51:11;100872.47;;;6.13;76.30
71857;BME280;63344;46.980;28.882;2023-12-29T12:53:40;100902.25;;;6.20;76.43
71857;BME280;63344;46.980;28.882;2023-12-29T12:56:08;100890.13;;;6.08;76.70
71857;BME280;63344;46.980;28.882;2023-12-29T12:58:36;100897.00;;;6.18;77.21
71857;BME280;63344;46.980;28.882;2023-12-29T13:01:04;100910.84;;;6.31;76.88
71857;BME280;63344;46.980;28.882;2023-12-29T13:03:32;100889.09;;;6.18;76.90
71857;BME280;63344;46.980;28.882;2023-12-29T13:06:00;100868.97;;;6.12;76.90
71857;BME280;63344;46.980;28.882;2023-12-29T13:08:29;100878.63;;;6.13;76.90
71857;BME280;63344;46.980;28.882;2023-12-29T13:11:10;100891.69;;;6.21;77.14